Date,TemperatureHighF,TemperatureAvgF,TemperatureLowF,DewpointHighF,DewpointAvgF,DewpointLowF,HumidityHigh,HumidityAvg,HumidityLow,PressureMaxIn,PressureMinIn,WindSpeedMaxMPH,WindSpeedAvgMPH,GustSpeedMaxMPH,PrecipitationSumIn
2013-1-1,29.3,19.2,10.0,-0.3,-6.4,-12.1,38,32,23,29.29,29.18,0,0,6,0.00
2013-1-2,31.5,17.4,7.9,0.2,-6.2,-14.1,44,34,25,29.29,29.18,0,0,0,0.00
2013-1-3,32.0,25.8,18.9,14.5,5.3,0.4,53,41,31,29.35,29.18,14,1,18,0.00
2013-1-4,37.4,24.6,13.3,8.1,2.9,-3.6,52,40,26,29.32,29.23,19,4,25,0.00
2013-1-5,37.4,29.9,20.3,29.0,15.4,6.1,74,56,32,29.32,29.03,20,4,20,0.00
2013-1-6,37.0,27.9,19.0,28.5,11.0,4.0,72,49,34,29.41,29.00,23,3,28,0.00
2013-1-7,39.4,27.3,17.2,12.8,9.2,4.4,63,47,29,29.41,29.21,17,4,23,0.00
2013-1-8,42.8,33.2,25.7,17.9,14.0,11.3,57,46,31,29.26,29.12,18,3,18,0.00
2013-1-9,50.9,39.8,28.8,19.5,12.2,2.7,52,33,21,29.56,29.09,17,4,24,0.00
2013-1-10,47.3,35.3,22.1,43.3,16.1,2.8,86,48,22,29.59,28.97,10,1,16,0.47
2013-1-11,57.9,53.3,48.0,56.8,48.0,41.0,97,83,66,28.97,28.76,17,4,22,0.20
2013-1-12,52.7,43.6,32.7,40.7,27.0,12.7,71,52,37,29.06,28.82,15,2,24,0.04
2013-1-13,33.8,24.9,13.3,27.5,11.9,-4.6,78,58,42,29.32,28.97,0,0,0,0.00
2013-1-14,28.8,17.5,11.3,2.0,-3.2,-6.4,46,39,31,29.53,29.32,0,0,0,0.00
2013-1-15,34.3,21.8,12.0,6.1,1.5,-3.3,53,42,27,29.50,29.18,0,0,0,0.04
2013-1-16,37.8,27.2,16.3,13.2,7.5,0.6,62,44,30,29.18,28.94,20,5,26,0.00
2013-1-17,33.4,27.1,17.8,20.8,2.0,-5.8,62,34,23,29.47,29.12,9,1,10,0.00
2013-1-18,42.8,30.4,16.2,14.5,7.8,-1.4,51,39,28,29.50,29.03,23,8,29,0.00
2013-1-19,49.3,40.8,29.3,21.5,14.7,-2.2,40,34,24,29.06,28.85,17,10,29,0.00
2013-1-20,29.3,18.1,12.4,-2.6,-8.7,-11.9,34,29,25,29.35,29.00,20,4,31,0.00
2013-2-17,31.1,27.5,25.7,1.5,-2.3,-5.6,31,27,23,29.18,29.09,0,0,0,0.00
2013-2-18,53.8,40.7,28.4,39.4,18.2,1.1,73,42,26,29.09,28.53,0,0,0,0.20
2013-2-19,30.0,15.9,9.9,14.1,-3.6,-10.7,53,41,36,29.26,28.67,0,0,0,0.00
2013-2-20,26.8,16.0,7.2,0.2,-6.5,-13.1,44,36,29,29.41,29.26,0,0,0,0.00
2013-2-21,32.2,25.4,18.7,17.1,5.5,-2.9,66,42,36,29.44,29.06,0,0,0,0.00
2013-2-22,37.0,30.0,25.3,29.7,17.5,9.9,75,60,40,29.06,28.88,0,0,0,0.00
2013-2-23,28.2,25.4,21.2,10.9,5.1,0.8,51,42,33,29.06,29.00,0,0,0,0.00
2013-2-24,43.3,27.7,16.0,9.9,5.7,3.6,61,41,23,29.21,29.06,0,0,0,0.12
2013-2-25,51.1,35.6,21.0,17.3,11.0,4.8,59,38,21,29.23,29.03,0,0,0,0.00
2013-2-26,36.9,35.3,33.1,33.4,23.2,8.9,87,64,34,29.03,28.59,0,0,0,0.16
2013-2-27,37.8,36.3,34.7,34.9,29.6,19.7,92,77,52,28.79,28.59,0,0,0,0.16
2013-2-28,36.7,34.2,29.1,29.3,18.0,6.6,77,52,37,29.15,28.79,0,0,0,0.12
2013-3-1,30.4,28.1,26.2,12.3,9.9,7.3,51,46,42,29.23,29.12,0,0,0,0.00
2013-3-2,35.1,27.2,18.7,9.1,3.8,-2.6,48,37,27,29.26,29.21,0,0,0,0.00
2013-3-3,37.6,24.7,13.3,1.9,-1.1,-3.6,48,33,21,29.23,29.15,0,0,0,0.00
2013-3-4,37.6,28.6,19.0,15.0,6.6,0.2,48,39,29,29.21,29.06,0,0,0,0.00
2013-3-5,36.0,34.0,32.2,29.0,25.0,15.0,82,70,48,29.06,28.85,0,0,0,0.00
2013-3-6,36.0,32.0,28.9,22.8,14.7,12.7,66,49,38,29.38,29.03,0,0,0,0.00
2013-3-7,42.1,33.4,26.4,15.2,10.1,5.9,52,38,26,29.50,29.35,0,0,0,0.20
2013-3-8,46.2,32.1,19.9,20.4,10.3,4.6,65,41,25,29.56,29.38,0,0,0,0.00
2013-3-9,44.2,37.9,30.4,19.5,15.1,9.3,51,39,33,29.38,28.94,0,0,0,0.00
2013-3-10,54.3,47.7,40.3,48.6,34.4,16.8,82,61,33,28.97,28.70,0,0,0,0.98
2013-3-11,51.3,42.0,33.8,42.9,34.5,20.6,83,75,58,28.88,28.64,0,0,0,0.04
2013-3-12,37.4,32.4,27.9,25.9,12.3,5.7,69,44,30,29.09,28.88,0,0,0,0.00
2013-3-13,36.7,28.5,23.2,7.6,2.2,-2.2,44,32,22,29.41,29.09,0,0,0,0.00
2013-3-14,35.6,29.7,21.6,24.5,11.0,-1.2,68,46,29,29.41,29.15,0,0,0,0.00
2013-3-15,45.3,38.0,32.4,32.9,26.2,19.5,80,63,39,29.18,28.79,0,0,0,0.04
2013-3-16,38.1,35.1,31.8,32.2,20.9,10.1,83,58,38,29.18,28.79,0,0,0,0.00
2013-3-17,42.6,33.0,27.5,11.9,7.8,3.5,43,34,26,29.26,29.06,0,0,0,0.00
2013-3-18,37.0,32.0,22.3,28.7,17.2,-2.4,73,55,33,29.06,28.70,0,0,0,0.04
2013-3-19,35.1,25.5,17.8,4.5,-0.3,-5.2,39,32,25,29.18,28.91,0,0,0,0.00
2013-3-20,26.2,20.7,14.0,1.5,-5.4,-9.9,47,31,27,29.18,29.09,0,0,0,0.00
2013-3-21,38.5,24.3,12.2,4.8,-2.0,-9.6,45,32,21,29.12,29.06,0,0,0,0.00
2013-3-22,45.9,30.0,16.7,9.2,2.8,-1.9,47,32,20,29.15,29.09,0,0,0,0.00
2013-3-23,50.0,33.9,24.8,15.0,9.1,4.8,53,37,21,29.21,29.09,10,1,11,0.00
2013-3-24,37.2,33.6,31.1,28.4,13.2,8.4,77,44,31,29.09,28.70,17,7,18,0.00
2013-3-25,36.3,33.5,31.6,16.5,12.8,9.7,49,42,34,29.15,28.76,10,4,14,0.00
2013-3-26,40.6,35.2,29.5,12.9,9.3,4.5,48,34,23,29.32,29.15,11,2,13,0.00
2013-3-27,42.8,36.8,31.3,16.0,8.6,1.4,50,32,23,29.38,29.32,9,2,12,0.00
2013-3-28,54.9,39.0,25.5,14.6,7.7,2.0,43,28,20,29.41,29.35,13,2,15,0.00
2013-3-29,61.9,42.9,29.5,19.2,10.1,1.9,41,27,19,29.41,29.29,10,2,23,0.00
2013-3-30,60.3,45.4,28.9,24.9,15.3,4.4,50,31,19,29.32,28.94,22,6,22,0.00
2013-3-31,60.4,48.7,37.4,43.0,22.8,8.2,80,40,19,28.97,28.79,25,7,27,0.00
2013-4-1,43.0,35.6,28.8,8.9,3.3,-1.2,32,25,20,29.26,28.97,17,3,19,0.00
2013-4-2,47.3,34.8,23.5,7.4,2.0,-3.7,37,25,19,29.38,29.26,15,3,20,0.00
2013-4-3,51.6,35.8,23.7,13.0,3.2,-2.8,32,25,19,29.50,29.38,10,3,13,0.00
2013-4-4,62.1,44.3,25.5,19.3,9.8,0.4,34,25,19,29.41,29.06,13,4,15,0.00
2013-4-5,52.5,43.7,36.3,18.4,10.8,2.6,46,26,20,29.29,29.09,11,5,15,0.00
2013-4-6,72.1,53.4,34.5,30.5,16.2,7.4,43,24,16,29.23,28.70,28,12,38,0.04
2013-4-7,65.1,50.2,39.4,34.1,23.7,15.9,51,37,18,29.03,28.73,19,19,19,0.00
2013-4-8,70.7,55.9,40.1,54.9,32.3,21.2,86,44,22,29.06,28.73,19,19,19,0.63
2013-4-9,75.0,52.6,45.0,45.5,36.2,25.9,81,57,22,29.06,28.88,19,19,19,0.04
2013-4-10,47.1,45.1,42.4,44.7,39.9,36.4,97,82,71,29.03,28.88,19,19,19,0.59
2013-4-11,57.4,49.7,42.4,56.8,47.1,28.3,98,91,57,28.94,28.67,19,19,19,0.31
2013-4-12,45.9,39.9,37.2,29.5,20.7,15.9,60,46,37,28.94,28.67,19,19,19,0.04
2013-4-13,48.9,40.1,35.2,24.2,15.1,9.9,61,37,24,29.06,28.94,19,19,19,0.00
2013-4-14,77.0,55.8,39.4,30.3,23.1,16.5,48,30,18,29.09,28.76,19,16,24,0.00
2013-4-15,66.4,57.2,49.1,46.8,36.7,24.9,75,48,25,29.06,28.79,28,9,30,0.47
2013-4-16,58.5,48.3,42.3,41.7,24.0,15.3,75,41,19,29.35,29.03,9,3,12,0.04
2013-4-17,56.7,47.8,43.0,55.2,32.4,14.5,95,58,30,29.35,28.88,12,6,36,1.30
2013-4-18,65.7,59.8,41.7,64.2,54.6,18.0,98,85,38,28.88,28.53,23,8,28,2.72
2013-4-19,41.2,37.4,35.1,18.2,13.3,10.3,41,37,31,29.00,28.61,28,13,30,0.00
2013-4-20,50.2,38.4,30.4,14.2,8.8,3.6,44,30,19,29.50,29.00,14,4,17,0.00
2013-4-21,62.2,44.9,28.8,19.5,11.0,4.7,39,26,19,29.59,29.41,13,5,17,0.00
2013-4-22,76.1,56.1,41.0,25.7,17.2,11.2,29,22,15,29.41,29.15,13,6,15,0.00
2013-4-23,60.8,51.9,41.0,44.8,32.5,14.6,74,51,20,29.15,28.97,14,4,14,0.63
2013-4-24,51.3,43.6,38.5,34.9,20.2,9.5,77,44,21,29.23,29.00,11,4,17,0.04
2013-4-25,54.7,45.1,38.3,21.0,14.8,8.6,42,30,20,29.41,29.15,16,6,22,0.00
2013-4-26,70.3,53.9,37.2,25.4,17.8,9.0,36,25,17,29.44,29.32,17,8,24,0.00
2013-4-27,76.8,59.1,43.3,37.7,25.1,18.9,56,30,15,29.38,29.09,13,3,18,0.00
2013-4-28,72.9,59.6,54.0,51.6,37.9,27.8,80,47,22,29.09,28.91,6,2,8,0.04
2013-4-29,77.7,64.4,52.9,47.3,35.5,27.4,71,39,18,29.03,28.88,16,8,20,0.00
2013-4-30,89.4,72.0,59.2,38.6,34.8,28.5,44,28,13,29.06,28.91,21,11,26,0.00
2013-5-1,92.1,75.8,62.2,40.0,33.2,24.4,43,24,12,29.23,29.06,15,6,17,0.00
2013-5-2,66.2,55.3,44.4,35.9,24.7,20.4,42,31,20,29.29,29.21,10,5,20,0.00
2013-5-3,55.6,48.6,42.3,45.9,35.3,22.4,78,61,42,29.21,29.03,10,5,13,0.08
2013-5-4,78.3,62.8,52.9,46.1,34.8,23.6,76,41,15,29.12,29.03,9,4,15,0.00
2013-5-5,76.5,61.3,47.5,31.4,25.2,20.4,48,27,15,29.12,29.06,11,3,12,0.00
2013-5-6,80.1,64.1,52.7,28.3,23.3,15.8,36,22,15,29.12,29.06,10,2,12,0.00
2013-5-7,84.7,65.4,48.7,29.8,23.1,17.1,35,21,13,29.15,29.06,8,2,11,0.00
2013-5-8,88.9,67.2,50.7,33.7,27.9,21.3,43,25,13,29.15,29.06,8,2,10,0.00
2013-5-9,78.4,64.5,55.9,53.2,34.7,23.9,70,35,18,29.06,28.91,13,3,17,0.63
2013-5-10,61.3,51.4,47.1,50.8,37.8,27.0,77,60,43,29.06,28.88,7,2,11,0.00
2013-5-11,62.6,52.7,43.3,40.4,26.1,9.2,69,40,18,29.15,28.94,17,4,18,0.00
2013-5-12,58.6,47.4,36.3,16.5,12.6,8.7,37,25,19,29.21,29.12,10,3,18,0.00
2013-5-13,71.4,53.7,34.7,24.4,18.1,13.4,46,26,17,29.26,29.12,11,2,19,0.00
2013-5-14,98.8,74.1,55.2,39.7,27.3,15.5,26,18,11,29.12,28.76,18,8,20,0.00
2013-5-15,91.9,76.2,62.2,33.3,29.1,23.1,29,18,12,28.94,28.76,13,5,19,0.00
2013-5-16,93.0,71.2,54.9,40.5,30.2,20.3,50,25,12,29.06,28.91,8,2,11,0.00
2013-5-17,80.2,66.5,56.8,47.6,32.6,22.0,48,29,18,29.12,29.06,8,1,11,0.04
2013-5-18,87.6,71.9,60.4,61.9,43.4,34.9,79,42,16,29.15,29.03,10,2,13,0.00
2013-5-19,94.3,77.8,62.4,59.2,42.7,32.6,70,34,14,29.06,28.85,11,3,16,0.00
2013-5-20,93.2,80.6,68.0,57.0,39.9,28.4,67,27,11,28.94,28.82,25,10,27,0.75
2013-5-21,85.8,73.4,65.3,57.0,47.6,36.6,69,44,19,28.88,28.76,14,14,14,0.51
2013-5-22,73.9,69.0,62.2,61.5,48.1,32.0,74,50,22,28.85,28.73,14,14,14,0.43
2013-5-23,62.4,53.9,41.5,47.2,32.8,17.7,70,47,25,29.35,28.85,14,14,14,0.08
2013-5-24,67.3,51.5,38.7,24.1,19.6,13.0,50,30,17,29.50,29.35,14,14,14,0.00
2013-5-25,62.1,51.8,42.3,29.5,25.1,20.5,50,36,24,29.47,29.38,14,14,14,0.00
2013-5-26,72.5,57.8,44.8,45.1,29.4,21.9,61,36,16,29.38,29.21,14,14,14,0.12
2013-5-27,68.5,63.3,58.6,57.9,51.0,44.2,82,65,43,29.23,28.94,14,14,14,0.39
2013-5-28,76.3,70.4,64.0,62.5,56.8,47.4,81,64,36,29.00,28.85,14,14,14,0.79
2013-5-29,90.5,75.7,65.5,62.3,48.7,38.8,79,44,18,29.06,28.88,14,14,14,0.04
2013-5-30,89.1,76.2,66.4,50.2,44.9,37.0,53,34,19,29.03,28.91,14,14,14,0.16
2013-5-31,79.5,72.3,66.6,62.6,52.5,43.5,78,52,29,29.00,28.82,14,14,14,0.24
2013-6-1,75.7,69.6,64.4,61.5,49.5,42.1,76,50,32,28.88,28.79,14,14,14,0.67
2013-6-2,65.8,57.4,48.7,57.0,42.2,30.1,77,57,40,29.15,28.82,14,14,14,0.00
2013-6-3,74.7,58.4,44.1,45.5,28.4,19.7,76,38,16,29.21,29.12,14,14,14,0.00
2013-6-4,79.0,62.5,48.4,41.0,28.4,23.1,61,31,15,29.26,29.18,14,14,14,0.00
2013-6-5,84.4,66.2,55.2,37.9,30.4,25.8,46,28,13,29.18,29.00,14,14,14,0.00
2013-6-6,72.3,62.3,54.3,43.9,31.9,25.7,52,33,19,29.03,28.97,14,14,14,0.00
2013-6-7,76.3,62.4,53.1,38.8,29.2,19.6,53,31,15,29.03,28.97,14,14,14,0.00
2013-6-8,83.7,64.6,48.2,32.2,25.7,18.7,42,25,14,29.12,29.00,14,14,14,0.00
2013-6-9,85.1,71.5,56.8,41.8,34.3,28.1,49,28,16,29.12,28.91,14,14,14,0.00
2013-6-10,83.8,72.2,65.1,62.2,48.6,36.3,74,47,19,28.97,28.85,14,14,14,0.63
2013-6-11,90.7,75.1,62.6,59.7,44.8,32.6,77,40,15,29.03,28.91,14,14,14,0.00
2013-6-12,91.8,75.6,67.1,65.4,54.7,41.6,77,52,19,29.00,28.70,14,12,23,1.93
2013-6-13,82.2,70.0,59.4,63.8,41.6,30.0,88,42,17,29.15,28.73,10,2,12,0.04
2013-6-14,86.4,67.5,55.6,40.7,34.2,27.0,55,32,13,29.21,29.12,7,2,10,0.00
2013-6-15,86.2,71.7,59.4,60.7,44.0,35.9,66,39,19,29.15,28.97,15,4,26,0.04
2013-6-16,87.4,75.8,68.0,57.9,46.5,36.0,68,39,18,29.03,28.97,14,6,24,0.00
2013-6-17,92.1,77.6,65.1,62.4,40.9,27.0,69,33,12,29.06,28.94,10,3,13,0.00
2013-6-18,79.0,66.5,57.2,53.2,35.8,24.7,69,35,17,29.15,29.00,9,2,11,0.00
2013-6-19,87.3,69.2,56.5,38.7,30.4,20.3,49,26,13,29.23,29.15,8,2,10,0.00
2013-6-20,98.1,77.7,59.7,42.4,36.2,26.2,46,25,11,29.26,29.15,8,2,9,0.00
2013-6-21,86.7,74.5,69.1,50.8,42.4,35.1,48,33,18,29.26,29.00,17,5,19,0.08
2013-6-22,83.5,75.4,69.4,59.4,48.8,39.3,60,40,25,29.21,29.06,13,5,20,0.00
2013-6-23,93.6,76.7,68.4,60.9,48.9,36.6,67,41,14,29.15,29.03,13,6,27,0.24
2013-6-24,89.8,76.2,70.0,62.2,52.7,40.2,70,48,19,29.18,29.06,15,6,17,0.12
2013-6-29,74.5,67.2,64.8,42.4,34.2,29.4,44,30,21,28.85,28.79,8,2,10,0.00
2013-6-30,84.7,71.2,63.3,50.9,35.4,19.7,62,31,13,29.06,28.85,10,2,13,0.00
2013-7-1,80.6,69.6,59.4,39.0,28.8,23.1,45,24,14,29.15,29.06,11,3,13,0.00
2013-7-7,85.5,80.4,77.4,48.3,45.1,39.9,36,29,20,29.09,29.06,6,2,8,0.00
2013-7-8,89.2,77.8,73.4,65.2,53.6,40.0,66,45,19,29.18,29.03,14,6,19,0.24
2013-7-9,87.8,80.2,75.2,67.9,58.2,49.2,69,49,27,29.09,28.97,18,4,20,0.00
2013-7-10,91.4,79.4,64.9,71.2,47.1,31.2,74,37,14,29.12,28.94,6,1,8,0.00
2013-7-11,85.8,71.8,62.2,52.6,35.9,23.8,61,31,13,29.21,29.12,9,1,11,0.00
2013-7-12,95.4,72.7,57.7,47.2,33.6,26.1,55,28,11,29.23,29.18,8,1,8,0.00
2013-7-13,96.8,76.4,61.5,51.9,38.5,28.2,63,31,11,29.26,29.21,8,2,10,0.00
2013-7-14,96.6,80.5,68.7,60.7,44.7,34.7,69,33,14,29.29,29.23,8,2,9,0.00
2013-7-15,97.3,82.7,72.7,68.4,51.0,37.8,73,38,13,29.35,29.29,8,1,12,0.00
2013-7-16,97.2,84.7,75.6,61.1,47.1,37.0,58,30,13,29.41,29.35,11,3,11,0.00
2013-7-17,98.2,85.4,74.1,63.0,45.5,36.1,61,28,13,29.41,29.29,10,3,13,0.00
2013-7-18,99.1,85.4,75.6,66.3,49.0,35.7,64,32,13,29.29,29.09,13,4,16,0.00
2013-7-19,97.2,86.6,77.5,57.6,45.4,35.0,50,27,13,29.09,28.88,28,8,28,0.00
2013-7-20,95.7,81.9,72.1,52.7,40.1,28.8,45,26,11,29.03,28.91,6,1,8,0.00
2013-7-21,95.9,79.9,68.7,60.9,45.3,31.0,66,35,12,29.06,28.97,12,3,13,0.00
2013-7-22,92.8,79.4,70.0,57.7,44.5,34.5,59,33,14,29.00,28.85,12,3,13,0.00
2013-7-23,83.1,72.8,62.2,59.7,41.5,28.5,72,36,16,29.09,28.79,9,3,13,0.12
2013-7-24,79.0,67.4,56.8,37.8,28.2,22.5,42,25,15,29.15,29.06,10,2,11,0.00
2013-7-25,88.2,70.1,55.0,46.1,31.7,24.4,59,28,13,29.21,29.15,8,1,9,0.00
2013-7-26,74.8,68.5,64.4,58.4,40.5,31.9,67,37,22,29.15,28.97,15,5,18,0.00
2013-7-27,68.4,62.8,57.7,49.6,33.4,20.8,65,36,20,29.03,28.97,10,2,17,0.00
2013-7-28,70.3,60.9,52.9,46.4,28.5,20.1,66,32,17,29.12,29.00,11,4,17,0.00
2013-7-29,82.9,66.3,54.5,40.5,31.9,25.1,50,30,14,29.26,29.12,10,2,13,0.00
2013-7-30,72.5,66.2,56.7,48.6,40.5,34.3,56,40,26,29.26,29.18,8,2,11,0.00
2013-7-31,75.6,70.4,66.2,63.8,50.3,41.0,76,51,29,29.18,29.06,6,0,7,0.08
2013-8-1,82.9,71.7,63.5,59.3,40.4,25.5,81,41,14,29.09,29.06,12,2,16,0.00
2013-8-2,86.7,72.6,62.4,62.2,46.4,33.8,70,43,18,29.06,28.94,15,4,17,0.98
2013-8-3,83.8,72.9,63.3,56.1,38.4,24.2,61,33,14,29.21,29.03,7,1,9,0.00
2013-8-4,80.4,68.5,58.3,53.4,36.2,27.5,65,34,15,29.29,29.21,8,2,10,0.00
2013-8-5,75.6,67.0,59.7,45.5,39.6,32.3,54,38,21,29.23,28.97,17,4,18,0.00
2013-8-6,87.6,74.8,67.5,63.6,49.9,39.0,75,45,19,29.03,28.94,10,5,11,0.20
2013-8-7,88.9,78.4,69.1,67.6,51.5,38.3,77,44,18,29.06,28.91,11,4,15,0.00
2013-8-8,80.6,72.0,65.5,52.7,36.8,23.4,58,31,14,29.12,29.06,8,2,13,0.00
2013-8-9,84.7,72.4,59.4,49.7,36.6,27.4,58,30,16,29.15,29.09,8,1,13,0.00
2013-8-10,89.8,74.8,64.8,60.6,37.4,23.9,70,30,12,29.23,29.15,8,1,8,0.00
2013-8-11,88.0,72.9,59.9,47.8,35.9,27.3,55,29,13,29.23,29.15,10,2,12,0.00
2013-8-12,85.6,75.2,67.1,48.2,40.8,31.9,48,31,16,29.15,28.97,11,4,15,0.00
2013-8-13,77.0,67.8,57.4,53.0,32.0,20.1,58,29,15,29.23,29.03,8,2,11,0.00
2013-8-14,77.9,64.1,53.4,41.4,28.8,22.2,56,29,15,29.32,29.23,6,1,8,0.00
2013-8-15,77.5,64.3,53.2,39.2,29.6,23.6,50,29,15,29.26,29.21,10,2,11,0.00
2013-8-16,86.5,69.1,55.4,43.1,30.8,22.0,50,27,13,29.29,29.23,6,1,9,0.00
2013-8-17,87.4,70.4,56.7,52.6,33.1,24.2,66,29,13,29.32,29.26,8,2,10,0.00
2013-8-18,90.3,72.3,59.2,60.5,37.5,26.1,74,34,12,29.29,29.21,6,1,9,0.00
2013-8-19,88.3,73.4,58.8,49.9,33.9,28.1,56,27,13,29.23,29.15,9,2,11,0.00
2013-8-20,93.2,77.9,64.6,52.0,36.5,29.2,53,26,11,29.23,29.15,12,3,15,0.00
2013-8-21,95.4,79.7,67.5,53.8,40.0,30.2,55,27,12,29.21,29.09,13,5,16,0.00
2013-8-22,75.9,72.3,66.7,65.6,54.8,43.8,77,56,32,29.23,29.12,11,2,13,0.47
2013-8-23,86.7,72.8,63.1,68.6,41.7,23.1,87,42,13,29.26,29.18,8,1,10,0.00
2013-8-24,94.3,75.8,60.3,53.2,37.9,26.6,69,32,11,29.35,29.26,10,2,12,0.00
2013-8-25,93.7,78.0,65.7,42.4,34.1,27.2,33,21,14,29.35,29.26,13,5,16,0.00
2013-8-26,93.6,79.1,67.3,51.5,43.0,36.5,48,30,14,29.26,29.12,13,5,19,0.00
2013-8-27,97.5,84.0,74.7,57.3,45.1,35.8,54,29,13,29.12,28.97,19,7,20,0.00
2013-8-28,88.3,80.0,72.5,60.3,42.1,33.0,64,28,17,29.15,28.94,15,3,18,0.00
2013-8-29,95.5,80.7,71.6,63.4,46.1,27.6,71,38,11,29.18,29.09,7,2,8,0.00
2013-8-30,97.7,79.4,68.7,58.8,45.9,30.6,61,35,13,29.09,28.88,13,4,15,0.28
2013-8-31,79.0,73.2,70.9,70.0,56.3,46.3,84,57,35,28.97,28.85,10,1,15,0.83
2013-9-1,89.2,76.1,67.3,66.7,49.0,34.5,79,44,15,28.91,28.85,9,2,11,1.06
2013-9-2,83.1,70.8,62.6,60.7,44.6,27.2,71,43,14,29.09,28.88,7,1,9,0.00
2013-9-3,80.2,66.9,58.1,42.9,32.9,23.6,52,32,15,29.18,29.09,8,1,11,0.00
2013-9-4,84.6,69.7,57.4,52.7,35.0,26.6,68,33,13,29.23,29.15,10,2,15,0.00
2013-9-5,78.6,68.8,60.1,58.8,33.9,20.1,69,31,15,29.32,29.21,9,2,10,0.00
2013-9-6,91.6,73.0,59.5,42.6,33.1,25.3,43,25,14,29.32,29.12,8,2,10,0.00
2013-9-7,91.9,76.2,66.4,52.4,39.8,28.4,57,30,12,29.12,29.00,13,4,17,0.00
2013-9-8,82.8,75.3,71.2,53.4,44.5,37.5,52,35,20,29.12,29.03,8,3,11,0.00
2013-9-9,98.6,82.2,69.3,61.7,45.7,36.3,66,33,13,29.06,28.94,11,5,15,0.00
2013-9-10,97.2,84.5,73.2,50.2,39.4,28.5,43,23,11,29.12,29.00,17,7,23,0.00
2013-9-11,94.3,79.9,72.9,49.4,39.9,28.6,43,26,13,29.15,29.09,12,4,17,0.00
2013-9-12,83.3,73.3,63.5,56.1,39.2,26.6,58,32,14,29.18,29.03,11,2,19,0.00
2013-9-13,72.5,61.3,50.4,38.4,24.0,15.9,42,25,16,29.26,29.15,10,2,11,0.00
2013-9-14,79.7,60.5,46.4,36.6,24.8,16.1,54,28,15,29.29,29.15,9,2,13,0.00
2013-9-15,65.5,60.0,55.4,52.2,33.5,15.3,72,40,20,29.23,29.06,9,2,11,0.35
2013-9-16,69.6,60.7,50.5,56.5,32.2,18.8,80,39,17,29.44,29.23,10,2,12,0.00
2013-9-17,77.2,62.3,50.7,38.6,28.5,23.1,57,31,15,29.41,29.21,8,2,10,0.00
2013-9-18,85.3,69.3,59.4,58.8,38.8,26.6,66,36,16,29.21,29.03,14,3,21,0.16
2013-9-19,93.7,77.6,70.0,65.3,51.1,36.0,72,45,14,29.06,28.91,10,5,15,0.00
2013-9-20,76.5,69.4,58.5,63.2,43.3,25.5,78,43,21,28.97,28.88,13,6,15,0.08
2013-9-21,70.0,60.3,50.5,45.9,29.0,19.0,68,34,17,29.03,28.91,8,1,10,0.00
2013-9-22,73.4,57.3,47.3,35.4,26.1,19.3,51,32,16,29.15,29.03,6,1,10,0.00
2013-9-23,79.0,59.8,46.4,33.9,27.0,20.6,50,31,15,29.21,29.12,6,2,8,0.00
2013-9-24,78.8,62.1,50.5,37.3,27.7,20.4,47,29,15,29.15,29.03,10,3,11,0.00
2013-9-25,78.3,62.3,50.9,42.9,29.4,20.7,63,32,15,29.06,29.00,8,2,10,0.00
2013-9-26,87.1,65.7,52.3,54.4,35.8,23.2,77,41,13,29.18,29.06,6,2,9,0.00
2013-9-27,90.9,69.3,54.0,44.6,30.3,18.5,64,28,12,29.26,29.15,10,2,10,0.00
2013-9-28,88.2,71.5,55.6,34.7,27.5,18.5,40,21,13,29.18,29.00,21,6,29,0.00
2013-9-29,73.6,62.4,50.7,56.2,32.8,18.5,67,37,16,29.15,29.03,11,2,13,0.20
2013-9-30,81.7,62.5,46.9,49.1,29.9,19.7,68,35,14,29.09,28.97,10,3,12,0.00
2013-10-1,81.1,69.9,61.0,61.1,43.6,30.8,80,43,17,29.09,29.00,15,7,19,0.00
2013-10-2,83.7,71.3,61.9,58.7,37.3,21.5,69,35,14,29.18,29.06,8,2,12,0.00
2013-10-3,82.9,70.4,61.2,64.9,50.7,33.4,77,52,20,29.09,28.94,13,4,15,0.24
2013-10-4,85.5,72.0,66.9,56.9,50.9,36.6,68,50,19,29.09,29.00,8,3,11,0.00
2013-10-5,84.9,73.4,67.6,64.4,55.8,37.0,76,57,19,29.06,28.88,9,4,15,0.35
2013-10-6,71.4,55.8,46.4,63.8,28.3,14.0,77,37,18,28.88,28.79,15,6,19,0.04
2013-10-7,67.8,55.0,45.7,43.3,26.3,18.5,73,37,17,29.18,28.88,14,4,15,0.00
2013-10-8,82.6,61.9,46.6,40.9,26.2,18.7,58,29,14,29.29,29.18,9,2,11,0.00
2013-10-9,81.0,61.5,47.7,40.7,25.4,19.4,59,27,14,29.32,29.23,8,3,9,0.00
2013-10-10,83.5,61.9,47.5,40.7,31.0,22.6,60,36,14,29.26,29.12,6,1,8,0.00
2013-10-11,84.7,65.6,52.7,39.4,27.5,19.6,46,26,13,29.18,29.06,10,3,11,0.00
2013-10-12,72.9,64.2,54.0,40.5,28.9,15.3,36,27,19,29.26,29.06,12,6,17,0.00
2013-10-13,68.0,54.1,42.6,24.5,19.6,13.9,45,27,17,29.47,29.26,6,1,9,0.00
2013-10-14,71.1,53.1,40.3,39.1,24.8,18.0,64,37,17,29.47,29.23,8,2,13,0.00
2013-10-15,66.4,58.6,52.0,57.5,35.5,22.6,74,44,27,29.23,28.88,15,5,16,0.08
2013-10-16,53.6,50.8,46.6,28.1,24.7,22.6,44,36,30,29.03,28.97,17,7,18,0.00
2013-10-17,54.5,49.7,42.3,42.2,28.9,17.1,71,46,25,29.03,28.94,12,3,16,0.12
2013-10-18,48.9,44.9,40.3,38.9,22.9,15.5,72,43,27,29.06,28.94,14,4,18,0.00
2013-10-19,56.1,48.1,43.3,27.3,18.0,11.0,51,31,20,29.03,28.88,20,6,26,0.00
2013-10-20,65.1,52.2,39.0,31.8,21.1,17.0,57,32,18,28.97,28.82,24,6,24,0.00
2013-10-21,55.6,46.0,33.4,32.6,14.9,1.0,48,29,19,29.06,28.91,20,5,22,0.00
2013-10-22,41.2,35.9,28.4,27.8,14.6,3.7,63,43,23,29.09,29.00,8,1,9,0.16
2013-10-23,45.3,38.3,33.3,26.3,15.0,5.8,69,42,22,29.12,29.00,10,2,17,0.00
2013-10-24,46.2,38.5,33.1,15.8,7.6,2.3,42,28,20,29.38,29.12,9,3,14,0.00
2013-10-25,54.0,39.5,27.0,14.5,9.4,5.4,45,30,19,29.50,29.18,20,6,23,0.00
2013-10-26,54.5,46.0,36.9,14.3,9.2,4.5,27,22,20,29.18,28.94,22,7,26,0.00
2013-10-27,59.4,42.7,30.2,17.8,10.2,5.0,44,27,19,29.18,29.06,14,4,17,0.00
2013-10-28,59.2,45.3,32.9,26.5,16.1,4.5,48,32,19,29.41,29.15,9,2,11,0.00
2013-10-29,59.7,48.9,41.4,31.0,22.7,13.5,63,39,19,29.44,29.23,6,3,9,0.00
2013-10-30,67.1,55.8,45.7,63.1,42.6,25.8,87,62,40,29.23,28.88,11,2,15,1.10
2013-10-31,68.4,62.8,47.5,65.6,54.2,27.8,91,74,46,28.88,28.32,17,8,22,1.02
2013-11-1,49.1,47.5,45.1,40.7,27.7,18.1,73,48,30,28.82,28.50,20,7,26,0.04
2013-11-2,48.2,44.4,39.9,39.6,26.8,15.9,79,53,29,29.21,28.82,6,1,8,0.00
2013-11-3,57.2,43.5,33.3,34.2,18.2,9.8,63,38,19,29.38,29.21,11,2,11,0.00
2013-11-4,57.4,49.7,42.1,21.2,17.6,14.1,40,28,19,29.35,29.21,21,8,22,0.00
2013-11-5,55.9,53.0,50.2,37.9,28.6,21.1,52,39,30,29.35,29.06,15,7,20,0.00
2013-11-6,60.1,49.7,35.2,53.2,34.2,7.4,78,56,30,29.26,28.91,18,6,24,1.14
2013-11-7,44.2,35.7,30.2,19.1,11.9,4.5,56,38,23,29.35,29.23,13,3,17,0.00
2013-11-8,51.6,39.9,29.5,23.8,13.7,8.1,59,37,21,29.41,29.06,15,5,25,0.00
2013-11-9,60.1,50.1,42.1,18.1,14.4,7.0,33,24,19,29.21,28.97,23,11,26,0.00
2013-11-10,51.1,41.5,33.6,12.5,9.0,4.5,39,26,21,29.41,29.21,10,4,17,0.00
2013-11-11,46.9,38.3,24.8,30.6,12.7,-1.4,70,36,22,29.56,29.18,11,5,15,0.08
2013-11-12,35.2,26.5,21.4,1.2,-1.4,-4.2,38,30,22,29.77,29.56,10,3,13,0.00
2013-11-13,41.2,29.0,19.0,4.2,1.3,-1.1,44,31,21,29.68,29.26,22,9,23,0.00
2013-11-14,52.2,39.0,28.4,13.4,5.4,1.0,32,25,19,29.26,29.06,21,10,24,0.00
2013-11-15,48.9,42.1,35.2,16.3,10.6,5.6,31,27,21,29.09,29.03,13,7,17,0.00
2013-11-16,61.3,53.2,40.5,49.4,37.0,13.6,68,54,32,29.06,28.70,26,11,31,0.28
2013-11-17,68.5,57.8,42.6,56.6,37.5,14.6,72,48,27,28.85,28.32,32,14,42,0.47
2013-11-18,45.5,38.8,30.6,19.1,9.5,2.4,41,30,21,29.32,28.85,17,5,23,0.00
2013-11-19,49.6,34.7,23.4,13.0,7.6,2.8,48,33,21,29.44,29.32,10,2,11,0.00
2013-11-20,44.8,37.6,30.0,26.3,11.4,5.1,54,35,22,29.38,29.18,13,4,17,0.20
2013-11-21,51.1,47.2,41.9,39.0,28.0,20.9,69,48,32,29.26,29.18,10,3,13,0.12
2013-11-22,47.3,38.1,27.0,36.9,18.1,5.1,68,46,23,29.53,29.26,8,2,12,0.00
2013-11-23,27.0,22.0,14.0,8.9,-4.9,-14.4,47,30,23,29.74,29.50,6,1,10,0.00
2013-11-24,30.0,18.3,9.5,-3.3,-11.2,-17.7,29,26,23,29.80,29.47,11,4,15,0.00
2013-11-25,31.6,27.5,19.8,10.2,0.6,-10.4,42,31,23,29.47,29.18,17,9,23,0.00
2013-11-26,36.0,29.0,16.7,10.3,3.2,-12.2,42,33,24,29.23,29.09,9,4,13,0.00
2013-11-27,30.0,19.9,11.7,-3.3,-9.9,-15.9,29,25,23,29.32,29.21,8,2,11,0.00
2013-11-28,36.0,26.9,21.4,0.8,-4.6,-8.2,33,25,22,29.56,29.26,17,5,20,0.00
2013-11-29,40.3,26.9,13.8,4.5,-1.7,-7.4,44,29,21,29.68,29.47,10,3,13,0.00
2013-11-30,53.8,37.9,28.2,14.5,6.2,-0.9,35,27,19,29.47,29.15,13,7,18,0.00
2013-12-1,47.8,35.7,29.3,18.1,10.4,4.1,51,36,22,29.18,29.06,6,1,9,0.00
2013-12-2,43.3,37.4,31.1,26.6,15.2,5.9,61,42,23,29.06,28.82,8,3,10,0.04
2013-12-3,52.9,47.3,38.8,44.8,37.9,27.0,74,70,62,28.82,28.76,12,5,15,0.00
2013-12-4,59.5,53.6,41.2,53.9,44.5,18.9,82,72,38,28.85,28.61,23,7,23,0.00
2013-12-5,40.3,26.6,21.0,19.6,0.9,-7.7,46,33,26,29.32,28.79,17,8,24,0.00
2013-12-6,21.0,18.1,12.4,-7.6,-10.1,-13.8,30,27,25,29.59,29.29,6,1,8,0.00
2013-12-7,23.2,13.2,7.0,-7.6,-14.3,-18.6,29,27,24,29.74,29.59,5,1,8,0.00
2013-12-8,26.1,21.2,11.7,12.1,-0.3,-15.9,55,39,27,29.65,29.03,13,4,13,0.00
2013-12-9,26.4,17.1,1.8,12.5,-5.6,-23.1,55,36,25,29.29,29.03,19,9,22,0.00
2013-12-10,22.3,11.6,-2.0,-6.6,-15.9,-26.5,29,27,25,29.35,29.12,22,8,26,0.00
2013-12-11,21.9,13.4,-2.7,1.6,-10.8,-28.4,47,33,25,29.62,29.35,8,2,16,0.00
2013-12-12,21.4,9.1,-5.3,-7.6,-17.6,-30.6,34,28,25,29.62,29.26,18,5,22,0.00
2013-12-13,31.8,22.2,12.0,19.2,-1.5,-10.3,65,36,25,29.26,29.15,6,3,8,0.00
2013-12-14,33.1,30.5,21.4,24.0,16.8,3.2,72,57,40,29.18,28.97,8,4,11,0.00
2013-12-15,20.8,13.2,9.7,2.9,-8.3,-12.5,48,37,35,29.18,29.03,15,6,22,0.00
2013-12-16,24.3,17.1,11.3,6.5,-6.1,-11.0,54,35,27,29.21,29.09,7,2,11,0.00
2013-12-17,34.2,25.5,17.6,16.2,5.3,-5.1,63,44,26,29.18,29.03,15,7,17,0.00
2013-12-18,33.1,24.6,13.6,11.4,-1.2,-7.1,44,32,23,29.23,28.94,17,8,24,0.00
2013-12-19,42.3,37.8,33.1,28.5,18.9,11.4,68,46,38,29.00,28.85,15,4,15,0.20
2013-12-20,39.4,39.1,38.1,35.5,34.0,28.1,86,82,67,28.88,28.79,5,2,9,0.20
2013-12-21,39.4,38.9,37.6,36.4,35.4,34.0,90,87,85,28.91,28.61,12,3,16,0.28
2013-12-22,38.1,33.3,26.1,33.7,21.5,5.6,84,63,41,29.21,28.64,9,1,12,0.04
2013-12-23,26.8,12.5,-0.9,9.3,-9.5,-25.5,47,36,29,29.53,29.21,0,0,0,0.00
2013-12-24,20.3,7.6,-2.4,-4.5,-17.3,-26.8,38,30,25,29.62,29.41,0,0,0,0.00
2013-12-25,28.6,24.2,17.8,15.5,4.5,-6.4,58,43,32,29.41,29.18,0,0,0,0.00
2013-12-26,34.3,25.7,12.9,12.1,1.6,-9.0,47,35,30,29.38,29.18,9,1,13,0.00
2013-12-27,45.9,35.9,26.8,17.9,11.1,6.2,52,36,22,29.38,29.18,15,6,24,0.00
2013-12-28,53.4,40.4,34.0,15.4,12.9,9.4,45,33,21,29.18,28.94,15,8,18,0.00
2013-12-29,36.1,28.8,14.4,17.0,7.1,-12.1,53,39,28,29.23,28.85,11,4,13,0.00
2013-12-30,16.0,9.5,2.1,-12.2,-17.1,-22.8,29,28,26,29.38,29.23,7,2,10,0.00
2013-12-31,14.4,10.1,1.8,-3.2,-16.5,-24.5,45,28,27,29.41,29.23,11,3,15,0.00
2014-1-1,22.6,19.8,14.4,4.4,1.3,-3.6,49,44,34,29.32,29.21,13,6,14,0.00
2014-1-2,21.7,16.3,2.7,6.4,-3.4,-19.3,51,41,33,29.47,29.15,10,4,12,0.00